createdAt,value
2018-06-04T00:02:11.909Z,99.90
2018-06-04T00:04:39.968Z,99.90
2018-06-04T00:07:08.033Z,99.90
2018-06-04T00:09:36.105Z,99.90
2018-06-04T00:12:04.178Z,99.90
2018-06-04T00:14:32.225Z,99.90
2018-06-04T00:17:00.285Z,99.90
2018-06-04T00:19:28.321Z,99.90
2018-06-04T00:21:56.373Z,99.90
2018-06-04T00:24:24.408Z,99.90
2018-06-04T00:26:52.533Z,99.90
2018-06-04T00:29:20.577Z,99.90
2018-06-04T00:31:48.636Z,99.90
2018-06-04T00:34:16.696Z,99.90
2018-06-04T00:36:44.736Z,99.90
2018-06-04T00:39:12.784Z,99.90
2018-06-04T00:41:40.828Z,99.90
2018-06-04T00:44:08.868Z,99.90
2018-06-04T00:46:36.924Z,99.90
2018-06-04T00:49:04.957Z,99.90
2018-06-04T00:51:33.009Z,99.90
2018-06-04T00:54:01.052Z,99.90
2018-06-04T00:58:57.041Z,99.90
2018-06-04T01:01:25.097Z,99.90
2018-06-04T01:03:53.128Z,99.90
2018-06-04T01:06:21.175Z,99.90
2018-06-04T01:08:49.218Z,99.90
2018-06-04T01:11:17.303Z,99.90
2018-06-04T01:13:45.339Z,99.90
2018-06-04T01:16:13.388Z,99.90
2018-06-04T01:18:41.433Z,99.90
2018-06-04T01:21:09.476Z,99.90
2018-06-04T01:23:37.516Z,99.90
2018-06-04T01:26:05.580Z,99.90
2018-06-04T01:28:33.613Z,99.90
2018-06-04T01:31:01.693Z,99.90
2018-06-04T01:33:29.762Z,99.90
2018-06-04T01:35:57.829Z,99.90
2018-06-04T01:38:25.888Z,99.90
2018-06-04T01:40:53.983Z,99.90
2018-06-04T01:43:22.034Z,99.90
2018-06-04T01:45:50.100Z,99.90
2018-06-04T01:48:18.164Z,99.90
2018-06-04T01:50:46.224Z,99.90
2018-06-04T01:53:14.284Z,99.90
2018-06-04T01:55:42.368Z,99.90
2018-06-04T01:58:10.427Z,99.90
2018-06-04T02:00:38.503Z,99.90
2018-06-04T02:03:06.566Z,99.90
2018-06-04T02:05:34.624Z,99.90
2018-06-04T02:08:02.691Z,99.90
2018-06-04T02:10:30.760Z,99.90
2018-06-04T02:12:58.837Z,99.90
2018-06-04T02:15:26.897Z,99.90
2018-06-04T02:17:54.972Z,99.90
2018-06-04T02:20:23.036Z,99.90
2018-06-04T02:22:51.108Z,99.90
2018-06-04T02:25:19.210Z,99.90
2018-06-04T02:27:47.271Z,99.90
2018-06-04T02:30:15.313Z,99.90
2018-06-04T02:32:43.372Z,99.90
2018-06-04T02:35:11.420Z,99.90
2018-06-04T02:37:39.473Z,99.90
2018-06-04T02:40:07.521Z,99.90
2018-06-04T02:42:35.624Z,99.90
2018-06-04T02:45:03.624Z,99.90
2018-06-04T02:47:31.669Z,99.90
2018-06-04T02:49:59.794Z,99.90
2018-06-04T02:52:27.766Z,99.90
2018-06-04T02:54:55.817Z,99.90
2018-06-04T02:57:23.888Z,99.90
2018-06-04T02:59:51.929Z,99.90
2018-06-04T03:02:19.981Z,99.90
2018-06-04T03:04:48.017Z,99.90
2018-06-04T03:07:16.064Z,99.90
2018-06-04T03:09:44.114Z,99.90
2018-06-04T03:12:12.160Z,99.90
2018-06-04T03:14:40.220Z,99.90
2018-06-04T03:17:08.285Z,99.90
2018-06-04T03:19:36.321Z,99.90
2018-06-04T03:22:04.373Z,99.90
2018-06-04T03:24:32.425Z,99.90
2018-06-04T03:27:00.497Z,99.90
2018-06-04T03:29:28.567Z,99.90
2018-06-04T03:31:56.641Z,99.90
2018-06-04T03:34:24.711Z,99.90
2018-06-04T03:36:52.784Z,99.90
2018-06-04T03:39:20.840Z,99.90
2018-06-04T03:41:48.908Z,99.90
2018-06-04T03:44:16.987Z,99.90
2018-06-04T03:46:45.049Z,99.90
2018-06-04T03:51:41.061Z,99.90
2018-06-04T03:54:09.120Z,99.90
2018-06-04T03:56:37.192Z,99.90
2018-06-04T03:59:05.252Z,99.90
2018-06-04T04:01:33.316Z,99.90
2018-06-04T04:04:01.393Z,99.90
2018-06-04T04:06:29.448Z,99.90
2018-06-04T04:08:57.517Z,99.90
2018-06-04T04:11:25.583Z,99.90
2018-06-04T04:13:53.648Z,99.90
2018-06-04T04:16:21.722Z,99.90
2018-06-04T04:18:49.794Z,99.90
2018-06-04T04:21:18.665Z,99.90
2018-06-04T04:23:46.747Z,99.90
2018-06-04T04:26:14.812Z,99.90
2018-06-04T04:28:42.881Z,99.90
2018-06-04T04:31:10.920Z,99.90
2018-06-04T04:33:39.091Z,99.90
2018-06-04T04:36:07.117Z,99.90
2018-06-04T04:38:35.164Z,99.90
2018-06-04T04:41:03.215Z,99.90
2018-06-04T04:43:31.252Z,99.90
2018-06-04T04:45:59.292Z,99.90
2018-06-04T04:48:27.353Z,99.90
2018-06-04T04:50:55.401Z,99.90
2018-06-04T04:53:23.445Z,99.90
2018-06-04T04:55:51.518Z,99.90
2018-06-04T04:58:19.542Z,99.90
2018-06-04T05:00:47.577Z,99.90
2018-06-04T05:03:15.628Z,99.90
2018-06-04T05:05:43.681Z,99.90
2018-06-04T05:08:11.738Z,99.90
2018-06-04T05:10:39.769Z,99.90
2018-06-04T05:13:07.934Z,99.90
2018-06-04T05:15:35.961Z,99.90
2018-06-04T05:18:04.005Z,99.90
2018-06-04T05:20:32.056Z,99.90
2018-06-04T05:23:00.085Z,99.90
2018-06-04T05:25:28.125Z,99.90
2018-06-04T05:30:24.016Z,99.90
2018-06-04T05:32:52.070Z,99.90
2018-06-04T05:35:20.118Z,99.90
2018-06-04T05:37:48.169Z,99.90
2018-06-04T05:40:16.225Z,99.90
2018-06-04T05:42:44.279Z,99.90
2018-06-04T05:45:12.322Z,99.90
2018-06-04T05:50:14.898Z,99.90
2018-06-04T05:52:42.946Z,99.90
2018-06-04T05:55:10.977Z,99.90
2018-06-04T05:57:39.027Z,99.90
2018-06-04T06:00:07.082Z,99.90
2018-06-04T06:02:35.129Z,99.90
2018-06-04T06:05:03.176Z,99.90
2018-06-04T06:07:31.226Z,99.90
2018-06-04T06:09:59.284Z,99.90
2018-06-04T06:12:27.393Z,99.90
2018-06-04T06:14:55.424Z,99.90
2018-06-04T06:17:23.460Z,99.90
2018-06-04T06:19:51.530Z,98.70
2018-06-04T06:22:19.572Z,97.30
2018-06-04T06:24:47.612Z,95.10
2018-06-04T06:27:15.706Z,93.70
2018-06-04T06:29:43.786Z,92.40
2018-06-04T06:32:11.841Z,90.70
2018-06-04T06:34:39.908Z,89.20
2018-06-04T06:37:07.968Z,86.50
2018-06-04T06:39:36.028Z,83.30
2018-06-04T06:42:04.105Z,82.30
2018-06-04T06:44:32.161Z,83.30
2018-06-04T06:47:00.222Z,81.80
2018-06-04T06:49:28.280Z,83.10
2018-06-04T06:51:56.345Z,82.90
2018-06-04T06:54:24.409Z,82.50
2018-06-04T06:56:52.465Z,82.50
2018-06-04T06:59:20.529Z,83.30
2018-06-04T07:01:48.629Z,83.30
2018-06-04T07:04:16.689Z,83.60
2018-06-04T07:06:44.789Z,83.40
2018-06-04T07:09:12.860Z,83.10
2018-06-04T07:11:40.957Z,82.50
2018-06-04T07:14:09.026Z,83.30
2018-06-04T07:16:37.085Z,83.30
2018-06-04T07:19:05.151Z,83.50
2018-06-04T07:21:33.206Z,84.90
2018-06-04T07:24:01.314Z,87.60
2018-06-04T07:26:29.364Z,87.10
2018-06-04T07:28:57.426Z,85.90
2018-06-04T07:31:25.453Z,85.10
2018-06-04T07:33:53.510Z,82.40
2018-06-04T07:36:21.541Z,84.40
2018-06-04T07:38:49.590Z,84.60
2018-06-04T07:41:18.061Z,83.90
2018-06-04T07:43:46.081Z,84.10
2018-06-04T07:46:14.113Z,83.60
2018-06-04T07:48:42.162Z,82.70
2018-06-04T07:51:10.199Z,85.40
2018-06-04T07:53:38.241Z,85.50
2018-06-04T07:56:06.288Z,83.60
2018-06-04T07:58:34.342Z,82.90
2018-06-04T08:01:02.385Z,82.30
2018-06-04T08:03:30.433Z,81.00
2018-06-04T08:05:58.483Z,80.10
2018-06-04T08:08:26.511Z,82.20
2018-06-04T08:10:54.555Z,82.20
2018-06-04T08:13:22.592Z,81.90
2018-06-04T08:15:50.633Z,80.80
2018-06-04T08:18:18.673Z,81.30
2018-06-04T08:20:46.716Z,79.80
2018-06-04T08:23:14.762Z,80.90
2018-06-04T08:25:42.807Z,79.60
2018-06-04T08:28:10.837Z,78.40
2018-06-04T08:30:38.885Z,79.00
2018-06-04T08:33:06.928Z,79.10
2018-06-04T08:35:35.056Z,77.50
2018-06-04T08:38:03.065Z,78.90
2018-06-04T08:40:31.113Z,77.40
2018-06-04T08:42:59.149Z,76.50
2018-06-04T08:45:27.193Z,76.10
2018-06-04T08:47:55.249Z,74.90
2018-06-04T08:50:23.337Z,76.30
2018-06-04T08:52:51.371Z,74.30
2018-06-04T08:55:19.417Z,75.40
2018-06-04T08:57:47.462Z,74.80
2018-06-04T09:00:15.532Z,75.30
2018-06-04T09:02:43.573Z,73.00
2018-06-04T09:07:39.544Z,73.30
2018-06-04T09:10:07.592Z,71.60
2018-06-04T09:12:35.648Z,72.90
2018-06-04T09:15:03.696Z,74.70
2018-06-04T09:17:31.732Z,72.00
2018-06-04T09:19:59.783Z,72.00
2018-06-04T09:22:27.825Z,71.60
2018-06-04T09:24:55.869Z,71.30
2018-06-04T09:27:23.917Z,71.60
2018-06-04T09:29:51.964Z,70.80
2018-06-04T09:32:20.055Z,71.20
2018-06-04T09:34:48.060Z,70.70
2018-06-04T09:37:16.099Z,70.90
2018-06-04T09:39:44.151Z,69.00
2018-06-04T09:42:12.185Z,70.50
2018-06-04T09:44:40.233Z,70.70
2018-06-04T09:47:08.264Z,69.40
2018-06-04T09:52:04.152Z,69.40
2018-06-04T09:54:32.197Z,70.20
2018-06-04T09:57:00.241Z,68.80
2018-06-04T09:59:28.292Z,67.60
2018-06-04T10:01:56.351Z,67.60
2018-06-04T10:04:24.406Z,66.10
2018-06-04T10:06:52.444Z,67.00
2018-06-04T10:09:20.892Z,65.90
2018-06-04T10:11:48.942Z,65.40
2018-06-04T10:14:16.989Z,67.60
2018-06-04T10:16:45.029Z,68.30
2018-06-04T10:19:13.068Z,68.20
2018-06-04T10:21:41.121Z,67.80
2018-06-04T10:24:09.157Z,66.50
2018-06-04T10:26:37.204Z,67.90
2018-06-04T10:29:05.278Z,68.30
2018-06-04T10:31:33.354Z,66.60
2018-06-04T10:34:01.417Z,64.40
2018-06-04T10:36:29.498Z,66.00
2018-06-04T10:38:57.558Z,65.60
2018-06-04T10:41:25.634Z,65.60
2018-06-04T10:43:53.697Z,61.60
2018-06-04T10:46:21.769Z,60.80
2018-06-04T10:48:49.843Z,63.50
2018-06-04T10:51:17.905Z,61.80
2018-06-04T10:53:45.973Z,64.60
2018-06-04T10:56:14.041Z,63.90
2018-06-04T10:58:42.099Z,63.30
2018-06-04T11:01:10.178Z,65.60
2018-06-04T11:03:38.233Z,58.10
2018-06-04T11:06:06.304Z,60.60
2018-06-04T11:08:34.363Z,62.70
2018-06-04T11:11:02.428Z,58.90
2018-06-04T11:13:30.487Z,60.10
2018-06-04T11:15:58.566Z,62.30
2018-06-04T11:18:26.616Z,62.50
2018-06-04T11:20:54.681Z,60.50
2018-06-04T11:23:22.745Z,59.20
2018-06-04T11:25:50.842Z,56.40
2018-06-04T11:28:18.898Z,55.10
2018-06-04T11:30:46.957Z,56.20
2018-06-04T11:33:14.997Z,58.40
2018-06-04T11:35:43.051Z,54.80
2018-06-04T11:38:11.096Z,53.80
2018-06-04T11:40:39.162Z,56.00
2018-06-04T11:45:35.049Z,55.60
2018-06-04T11:48:03.102Z,56.90
2018-06-04T11:50:31.165Z,56.50
2018-06-04T11:52:59.210Z,56.80
2018-06-04T11:55:27.267Z,57.80
2018-06-04T11:57:55.311Z,58.30
2018-06-04T12:00:23.360Z,58.00
2018-06-04T12:02:51.403Z,57.50
2018-06-04T12:05:19.456Z,55.60
2018-06-04T12:07:47.499Z,56.10
2018-06-04T12:10:15.549Z,53.80
2018-06-04T12:12:43.592Z,56.00
2018-06-04T12:15:11.646Z,54.60
2018-06-04T12:17:39.700Z,53.10
2018-06-04T12:20:07.752Z,54.80
2018-06-04T12:22:35.805Z,55.50
2018-06-04T12:25:03.853Z,54.00
2018-06-04T12:27:31.903Z,55.80
2018-06-04T12:29:59.980Z,55.10
2018-06-04T12:32:28.049Z,56.80
2018-06-04T12:34:56.121Z,50.60
2018-06-04T12:37:25.156Z,53.60
2018-06-04T12:39:53.225Z,54.30
2018-06-04T12:42:21.300Z,52.40
2018-06-04T12:44:49.356Z,52.90
2018-06-04T12:47:17.423Z,52.20
2018-06-04T12:49:45.501Z,54.80
2018-06-04T12:52:13.564Z,53.00
2018-06-04T12:54:41.629Z,53.10
2018-06-04T12:57:09.685Z,54.30
2018-06-04T12:59:37.752Z,53.10
2018-06-04T13:02:05.893Z,54.10
2018-06-04T13:04:34.039Z,53.70
2018-06-04T13:07:02.034Z,54.60
2018-06-04T13:09:30.088Z,55.90
2018-06-04T13:11:58.165Z,54.20
2018-06-04T13:14:26.254Z,54.90
2018-06-04T13:16:54.379Z,51.00
2018-06-04T13:19:22.428Z,49.40
2018-06-04T13:21:50.508Z,51.70
2018-06-04T13:24:18.757Z,53.20
2018-06-04T13:26:46.905Z,50.80
2018-06-04T13:29:14.990Z,53.50
2018-06-04T13:31:43.059Z,53.60
2018-06-04T13:36:39.076Z,57.20
2018-06-04T13:39:08.428Z,57.20
2018-06-04T13:41:36.663Z,57.50
2018-06-04T13:44:04.736Z,57.90
2018-06-04T13:46:32.813Z,56.90
2018-06-04T13:49:00.880Z,57.80
2018-06-04T13:51:28.948Z,57.20
2018-06-04T13:53:57.048Z,58.40
2018-06-04T13:56:25.135Z,58.90
2018-06-04T13:58:53.172Z,59.40
2018-06-04T14:01:21.245Z,58.80
2018-06-04T14:03:49.301Z,59.80
2018-06-04T14:06:17.385Z,61.30
2018-06-04T14:08:45.451Z,62.90
2018-06-04T14:11:13.545Z,63.10
2018-06-04T14:13:41.585Z,61.40
2018-06-04T14:16:09.676Z,59.80
2018-06-04T14:18:37.744Z,60.50
2018-06-04T14:21:06.018Z,59.40
2018-06-04T14:23:34.072Z,58.20
2018-06-04T14:26:02.141Z,60.80
2018-06-04T14:28:30.213Z,61.10
2018-06-04T14:30:58.255Z,60.60
2018-06-04T14:33:26.304Z,58.80
2018-06-04T14:35:54.348Z,60.40
2018-06-04T14:38:22.405Z,60.00
2018-06-04T14:40:50.482Z,59.90
2018-06-04T14:43:18.537Z,60.90
2018-06-04T14:45:46.579Z,58.60
2018-06-04T14:48:15.284Z,61.10
2018-06-04T14:50:44.207Z,60.60
2018-06-04T14:53:12.296Z,62.90
2018-06-04T14:55:40.336Z,63.90
2018-06-04T14:58:08.383Z,63.30
2018-06-04T15:03:05.068Z,62.30
2018-06-04T15:08:01.033Z,62.80
2018-06-04T15:10:29.064Z,63.40
2018-06-04T15:12:57.115Z,61.80
2018-06-04T15:15:25.160Z,60.60
2018-06-04T15:17:53.213Z,63.20
2018-06-04T15:20:21.297Z,59.80
2018-06-04T15:22:49.313Z,59.90
2018-06-04T15:25:17.353Z,62.60
2018-06-04T15:27:45.397Z,61.00
2018-06-04T15:30:13.453Z,63.40
2018-06-04T15:32:41.508Z,59.90
2018-06-04T15:35:09.545Z,61.20
2018-06-04T15:40:05.545Z,61.20
2018-06-04T15:42:33.679Z,64.50
2018-06-04T15:45:01.713Z,62.80
2018-06-04T15:47:29.764Z,63.70
2018-06-04T15:49:57.800Z,62.70
2018-06-04T15:52:25.841Z,63.40
2018-06-04T15:54:53.881Z,66.10
2018-06-04T15:57:22.001Z,62.70
2018-06-04T15:59:50.040Z,61.60
2018-06-04T16:02:18.088Z,62.60
2018-06-04T16:04:46.132Z,64.60
2018-06-04T16:07:14.180Z,62.90
2018-06-04T16:09:42.224Z,62.50
2018-06-04T16:12:10.279Z,63.20
2018-06-04T16:14:38.315Z,62.00
2018-06-04T16:17:06.369Z,64.10
2018-06-04T16:19:34.408Z,62.90
2018-06-04T16:22:02.455Z,62.10
2018-06-04T16:24:30.492Z,64.00
2018-06-04T16:26:58.533Z,60.90
2018-06-04T16:29:26.607Z,59.40
2018-06-04T16:31:54.664Z,59.80
2018-06-04T16:34:22.764Z,60.50
2018-06-04T16:36:50.825Z,60.70
2018-06-04T16:39:18.891Z,60.60
2018-06-04T16:41:46.964Z,60.60
2018-06-04T16:44:15.025Z,58.40
2018-06-04T16:46:43.078Z,59.40
2018-06-04T16:49:11.184Z,62.00
2018-06-04T16:51:39.249Z,61.40
2018-06-04T16:54:07.377Z,58.30
2018-06-04T16:56:35.428Z,58.00
2018-06-04T16:59:03.500Z,57.10
2018-06-04T17:01:31.589Z,58.50
2018-06-04T17:03:59.653Z,57.40
2018-06-04T17:06:27.708Z,56.70
2018-06-04T17:08:55.773Z,57.60
2018-06-04T17:11:24.021Z,56.70
2018-06-04T17:16:20.025Z,55.10
2018-06-04T17:18:48.084Z,56.10
2018-06-04T17:23:44.068Z,57.10
2018-06-04T17:26:12.168Z,57.90
2018-06-04T17:28:40.228Z,56.50
2018-06-04T17:31:08.300Z,57.70
2018-06-04T17:33:36.612Z,58.00
2018-06-04T17:36:04.880Z,57.90
2018-06-04T17:38:32.944Z,57.80
2018-06-04T17:41:00.998Z,57.40
2018-06-04T17:43:29.067Z,58.40
2018-06-04T17:45:57.127Z,58.70
2018-06-04T17:48:25.177Z,58.40
2018-06-04T17:50:53.232Z,57.20
2018-06-04T17:53:21.309Z,57.00
2018-06-04T17:55:49.366Z,58.30
2018-06-04T17:58:17.423Z,56.40
2018-06-04T18:00:45.486Z,57.30
2018-06-04T18:03:13.544Z,58.40
2018-06-04T18:05:41.604Z,57.30
2018-06-04T18:08:09.660Z,57.80
2018-06-04T18:10:37.734Z,58.30
2018-06-04T18:13:05.795Z,58.90
2018-06-04T18:15:33.857Z,59.20
2018-06-04T18:18:01.921Z,60.10
2018-06-04T18:20:30.118Z,59.00
2018-06-04T18:22:58.620Z,60.70
2018-06-04T18:25:26.706Z,62.10
2018-06-04T18:27:55.145Z,62.70
2018-06-04T18:30:23.216Z,64.20
2018-06-04T18:32:51.352Z,66.80
2018-06-04T18:35:19.449Z,66.90
2018-06-04T18:37:47.516Z,70.10
2018-06-04T18:40:15.793Z,71.20
2018-06-04T18:42:44.840Z,72.70
2018-06-04T18:45:13.560Z,73.40
2018-06-04T18:47:41.809Z,72.60
2018-06-04T18:50:10.097Z,73.40
2018-06-04T18:52:38.486Z,74.40
2018-06-04T18:55:06.657Z,73.90
2018-06-04T18:57:34.996Z,73.80
2018-06-04T19:00:03.396Z,73.80
2018-06-04T19:02:31.454Z,75.20
2018-06-04T19:04:59.524Z,75.20
2018-06-04T19:07:27.577Z,76.10
2018-06-04T19:09:55.641Z,76.30
2018-06-04T19:12:23.694Z,76.90
2018-06-04T19:14:51.755Z,77.70
2018-06-04T19:17:19.804Z,77.80
2018-06-04T19:19:47.877Z,76.00
2018-06-04T19:22:15.937Z,75.40
2018-06-04T19:24:44.108Z,75.80
2018-06-04T19:27:12.156Z,75.70
2018-06-04T19:29:40.220Z,76.10
2018-06-04T19:32:08.269Z,76.80
2018-06-04T19:34:36.335Z,77.50
2018-06-04T19:37:04.404Z,78.20
2018-06-04T19:39:32.456Z,77.70
2018-06-04T19:42:00.522Z,77.60
2018-06-04T19:44:29.607Z,78.90
2018-06-04T19:46:57.735Z,78.30
2018-06-04T19:49:25.793Z,78.10
2018-06-04T19:51:53.844Z,78.80
2018-06-04T19:54:21.903Z,79.80
2018-06-04T19:56:49.948Z,79.70
2018-06-04T19:59:18.012Z,79.60
2018-06-04T20:01:46.075Z,79.70
2018-06-04T20:04:14.149Z,80.50
2018-06-04T20:06:42.210Z,82.50
2018-06-04T20:09:10.362Z,82.80
2018-06-04T20:11:38.569Z,83.00
2018-06-04T20:14:06.730Z,83.30
2018-06-04T20:16:34.991Z,83.50
2018-06-04T20:19:03.035Z,83.90
2018-06-04T20:21:31.411Z,84.40
2018-06-04T20:23:59.553Z,84.40
2018-06-04T20:26:27.563Z,84.80
2018-06-04T20:28:55.632Z,85.70
2018-06-04T20:33:51.620Z,84.50
2018-06-04T20:36:19.681Z,84.70
2018-06-04T20:38:47.765Z,85.50
2018-06-04T20:41:15.824Z,85.60
2018-06-04T20:43:43.898Z,85.60
2018-06-04T20:46:11.956Z,86.70
2018-06-04T20:48:40.033Z,85.20
2018-06-04T20:51:08.104Z,85.80
2018-06-04T20:53:36.181Z,85.60
2018-06-04T20:56:04.240Z,85.00
2018-06-04T21:01:00.472Z,85.10
2018-06-04T21:03:28.667Z,86.20
2018-06-04T21:05:56.804Z,85.30
2018-06-04T21:08:24.860Z,85.60
2018-06-04T21:10:52.921Z,87.50
2018-06-04T21:13:20.990Z,87.20
2018-06-04T21:15:49.432Z,86.50
2018-06-04T21:18:17.496Z,86.60
2018-06-04T21:20:45.567Z,87.20
2018-06-04T21:23:13.629Z,86.50
2018-06-04T21:25:41.702Z,87.70
2018-06-04T21:28:09.752Z,88.00
2018-06-04T21:30:37.808Z,87.70
2018-06-04T21:33:05.864Z,88.40
2018-06-04T21:35:33.904Z,88.90
2018-06-04T21:38:01.949Z,88.10
2018-06-04T21:40:30.045Z,88.90
2018-06-04T21:42:58.093Z,90.00
2018-06-04T21:45:26.136Z,89.60
2018-06-04T21:50:22.020Z,90.50
2018-06-04T21:52:50.062Z,91.10
2018-06-04T21:55:18.159Z,91.50
2018-06-04T21:57:46.219Z,91.50
2018-06-04T22:00:14.291Z,90.90
2018-06-04T22:02:42.358Z,91.50
2018-06-04T22:05:10.425Z,91.00
2018-06-04T22:07:38.512Z,91.40
2018-06-04T22:10:06.593Z,91.50
2018-06-04T22:12:34.670Z,91.90
2018-06-04T22:15:02.754Z,91.70
2018-06-04T22:17:30.813Z,92.10
2018-06-04T22:19:58.888Z,92.70
2018-06-04T22:22:26.952Z,92.70
2018-06-04T22:24:55.021Z,92.50
2018-06-04T22:27:23.098Z,92.70
2018-06-04T22:29:51.157Z,93.40
2018-06-04T22:34:47.193Z,93.80
2018-06-04T22:37:15.269Z,93.30
2018-06-04T22:39:43.320Z,93.50
2018-06-04T22:42:11.389Z,94.00
2018-06-04T22:44:40.901Z,94.10
2018-06-04T22:47:09.184Z,94.40
2018-06-04T22:49:37.245Z,94.50
2018-06-04T22:52:05.316Z,94.30
2018-06-04T22:54:33.448Z,94.70
2018-06-04T22:57:01.521Z,94.60
2018-06-04T22:59:29.580Z,94.70
2018-06-04T23:01:57.649Z,95.30
2018-06-04T23:04:25.708Z,95.40
2018-06-04T23:06:53.777Z,95.60
2018-06-04T23:09:21.836Z,95.50
2018-06-04T23:11:49.892Z,95.50
2018-06-04T23:14:17.969Z,95.60
2018-06-04T23:16:46.036Z,95.80
2018-06-04T23:19:14.089Z,96.40
2018-06-04T23:24:10.026Z,96.40
2018-06-04T23:26:38.080Z,96.70
2018-06-04T23:29:06.176Z,96.70
2018-06-04T23:31:34.229Z,96.80
2018-06-04T23:34:02.268Z,96.90
2018-06-04T23:36:30.324Z,97.00
2018-06-04T23:38:58.368Z,97.10
2018-06-04T23:41:26.412Z,97.10
2018-06-04T23:43:54.451Z,97.50
2018-06-04T23:46:22.505Z,97.40
2018-06-04T23:48:50.560Z,97.80
2018-06-04T23:51:18.612Z,97.70
2018-06-04T23:53:46.664Z,98.10
2018-06-04T23:56:14.719Z,98.00
2018-06-04T23:58:42.773Z,98.30
